Terminal Aerodrome Forecast
Issued by NWS Grand Forks, ND

Home | Current Version | Previous Version | Text Only | Print | Product List | Glossary On
Versions: 1 2 3 4 5 6 7 8 9 10 11 12 13 14 15 16 17 18 19 20 21 22 23 24
000
FTUS43 KFGF 072337 AAB
TAFGFK
TAF AMD
KGFK 072337Z 0800/0824 34028G36KT 1/4SM -SN BLSN OVC025
     FM080200 34024G32KT 2SM BLSN OVC030
     FM080400 34024G30KT P6SM BKN040
     FM081600 34026G33KT P6SM SCT035
     FM082100 34020KT P6SM SCT130=

USA.gov is the U.S. government's official web portal to all federal, state and local government web resources and services.